sensor_id;sensor_type;location;lat;lon;timestamp;pressure;altitude;pressure_sealevel;temperature;humidity
29371;BME280;16357;52.188;7.838;2023-03-15T00:01:12;100243.81;;;4.53;54.56
29371;BME280;16357;52.188;7.838;2023-03-15T00:03:42;100243.31;;;4.59;54.40
29371;BME280;16357;52.188;7.838;2023-03-15T00:06:09;100248.94;;;4.66;54.63
29371;BME280;16357;52.188;7.838;2023-03-15T00:08:36;100252.88;;;4.71;54.38
29371;BME280;16357;52.188;7.838;2023-03-15T00:11:03;100266.63;;;4.76;54.53
29371;BME280;16357;52.188;7.838;2023-03-15T00:13:30;100261.63;;;4.83;54.66
29371;BME280;16357;52.188;7.838;2023-03-15T00:15:59;100268.38;;;4.87;54.51
29371;BME280;16357;52.188;7.838;2023-03-15T00:18:26;100274.13;;;4.92;54.25
29371;BME280;16357;52.188;7.838;2023-03-15T00:20:53;100287.03;;;4.97;54.20
29371;BME280;16357;52.188;7.838;2023-03-15T00:23:20;100292.78;;;5.02;54.45
29371;BME280;16357;52.188;7.838;2023-03-15T00:25:47;100294.22;;;5.06;53.98
29371;BME280;16357;52.188;7.838;2023-03-15T00:28:14;100300.94;;;5.10;54.31
29371;BME280;16357;52.188;7.838;2023-03-15T00:30:42;100302.38;;;5.14;54.24
29371;BME280;16357;52.188;7.838;2023-03-15T00:33:11;100304.66;;;5.19;54.36
29371;BME280;16357;52.188;7.838;2023-03-15T00:35:40;100315.00;;;5.22;55.06
29371;BME280;16357;52.188;7.838;2023-03-15T00:38:08;100306.88;;;5.23;55.94
29371;BME280;16357;52.188;7.838;2023-03-15T00:40:35;100322.84;;;5.23;55.83
29371;BME280;16357;52.188;7.838;2023-03-15T00:43:02;100317.66;;;5.22;56.33
29371;BME280;16357;52.188;7.838;2023-03-15T00:45:29;100317.94;;;5.19;56.42
29371;BME280;16357;52.188;7.838;2023-03-15T00:47:55;100307.53;;;5.16;56.82
29371;BME280;16357;52.188;7.838;2023-03-15T00:50:24;100304.44;;;5.11;57.15
29371;BME280;16357;52.188;7.838;2023-03-15T00:52:50;100316.31;;;5.06;57.32
29371;BME280;16357;52.188;7.838;2023-03-15T00:55:18;100315.75;;;5.03;57.36
29371;BME280;16357;52.188;7.838;2023-03-15T00:57:45;100314.31;;;4.99;57.60
29371;BME280;16357;52.188;7.838;2023-03-15T01:00:15;100309.28;;;4.96;57.90
29371;BME280;16357;52.188;7.838;2023-03-15T01:02:42;100312.88;;;4.95;58.00
29371;BME280;16357;52.188;7.838;2023-03-15T01:05:10;100304.22;;;4.93;58.79
29371;BME280;16357;52.188;7.838;2023-03-15T01:07:36;100314.97;;;4.91;58.53
29371;BME280;16357;52.188;7.838;2023-03-15T01:10:05;100323.94;;;4.90;58.83
29371;BME280;16357;52.188;7.838;2023-03-15T01:12:32;100317.63;;;4.91;58.86
29371;BME280;16357;52.188;7.838;2023-03-15T01:15:00;100315.97;;;4.90;59.38
29371;BME280;16357;52.188;7.838;2023-03-15T01:17:28;100320.41;;;4.90;59.48
29371;BME280;16357;52.188;7.838;2023-03-15T01:19:54;100331.19;;;4.88;59.45
29371;BME280;16357;52.188;7.838;2023-03-15T01:22:21;100329.34;;;4.89;60.01
29371;BME280;16357;52.188;7.838;2023-03-15T01:24:47;100326.84;;;4.87;60.07
29371;BME280;16357;52.188;7.838;2023-03-15T01:27:14;100339.16;;;4.88;60.21
29371;BME280;16357;52.188;7.838;2023-03-15T01:29:40;100336.63;;;4.87;60.23
29371;BME280;16357;52.188;7.838;2023-03-15T01:32:07;100342.78;;;4.87;60.36
29371;BME280;16357;52.188;7.838;2023-03-15T01:34:34;100334.94;;;4.86;60.61
29371;BME280;16357;52.188;7.838;2023-03-15T01:37:01;100341.25;;;4.84;60.61
29371;BME280;16357;52.188;7.838;2023-03-15T01:39:30;100338.59;;;4.84;60.84
29371;BME280;16357;52.188;7.838;2023-03-15T01:41:57;100343.03;;;4.84;60.96
29371;BME280;16357;52.188;7.838;2023-03-15T01:44:47;100348.34;;;4.84;60.91
29371;BME280;16357;52.188;7.838;2023-03-15T01:47:14;100344.75;;;4.85;60.75
29371;BME280;16357;52.188;7.838;2023-03-15T01:49:42;100351.88;;;4.84;60.99
29371;BME280;16357;52.188;7.838;2023-03-15T01:52:13;100355.22;;;4.87;60.69
29371;BME280;16357;52.188;7.838;2023-03-15T01:54:51;100353.53;;;4.86;60.76
29371;BME280;16357;52.188;7.838;2023-03-15T01:57:26;100359.69;;;4.86;61.01
29371;BME280;16357;52.188;7.838;2023-03-15T01:59:58;100364.19;;;4.86;60.97
29371;BME280;16357;52.188;7.838;2023-03-15T02:02:27;100369.38;;;4.87;60.92
29371;BME280;16357;52.188;7.838;2023-03-15T02:05:07;100364.91;;;4.88;61.30
29371;BME280;16357;52.188;7.838;2023-03-15T02:07:38;100371.16;;;4.87;61.24
29371;BME280;16357;52.188;7.838;2023-03-15T02:10:18;100372.97;;;4.86;61.24
29371;BME280;16357;52.188;7.838;2023-03-15T02:12:49;100376.63;;;4.85;61.29
29371;BME280;16357;52.188;7.838;2023-03-15T02:15:17;100369.59;;;4.84;61.04
29371;BME280;16357;52.188;7.838;2023-03-15T02:17:45;100373.13;;;4.84;61.42
29371;BME280;16357;52.188;7.838;2023-03-15T02:20:39;100375.78;;;4.84;61.55
29371;BME280;16357;52.188;7.838;2023-03-15T02:23:15;100383.75;;;4.84;61.59
29371;BME280;16357;52.188;7.838;2023-03-15T02:28:20;100384.88;;;4.82;61.47
29371;BME280;16357;52.188;7.838;2023-03-15T02:30:47;100390.19;;;4.82;61.60
29371;BME280;16357;52.188;7.838;2023-03-15T02:33:20;100389.19;;;4.83;61.66
29371;BME280;16357;52.188;7.838;2023-03-15T02:35:47;100391.97;;;4.81;61.86
29371;BME280;16357;52.188;7.838;2023-03-15T02:38:14;100397.28;;;4.81;61.61
29371;BME280;16357;52.188;7.838;2023-03-15T02:40:40;100400.91;;;4.80;61.66
29371;BME280;16357;52.188;7.838;2023-03-15T02:43:18;100406.97;;;4.82;61.81
29371;BME280;16357;52.188;7.838;2023-03-15T02:45:46;100407.06;;;4.81;61.72
29371;BME280;16357;52.188;7.838;2023-03-15T02:48:13;100408.78;;;4.82;61.73
29371;BME280;16357;52.188;7.838;2023-03-15T02:50:40;100402.47;;;4.83;62.17
29371;BME280;16357;52.188;7.838;2023-03-15T02:53:06;100424.56;;;4.83;61.84
29371;BME280;16357;52.188;7.838;2023-03-15T02:55:33;100426.28;;;4.84;62.21
29371;BME280;16357;52.188;7.838;2023-03-15T02:58:00;100424.47;;;4.85;61.86
29371;BME280;16357;52.188;7.838;2023-03-15T03:00:27;100424.31;;;4.87;62.06
29371;BME280;16357;52.188;7.838;2023-03-15T03:02:54;100429.63;;;4.87;61.88
29371;BME280;16357;52.188;7.838;2023-03-15T03:05:21;100435.94;;;4.86;62.14
29371;BME280;16357;52.188;7.838;2023-03-15T03:07:47;100438.47;;;4.87;62.12
29371;BME280;16357;52.188;7.838;2023-03-15T03:10:17;100440.25;;;4.87;62.25
29371;BME280;16357;52.188;7.838;2023-03-15T03:12:44;100450.91;;;4.87;61.95
29371;BME280;16357;52.188;7.838;2023-03-15T03:15:12;100445.59;;;4.87;62.25
29371;BME280;16357;52.188;7.838;2023-03-15T03:17:38;100454.41;;;4.87;61.92
29371;BME280;16357;52.188;7.838;2023-03-15T03:20:06;100451.75;;;4.87;61.95
29371;BME280;16357;52.188;7.838;2023-03-15T03:22:33;100460.56;;;4.88;62.22
29371;BME280;16357;52.188;7.838;2023-03-15T03:25:00;100470.13;;;4.90;61.97
29371;BME280;16357;52.188;7.838;2023-03-15T03:27:28;100463.94;;;4.90;62.24
29371;BME280;16357;52.188;7.838;2023-03-15T03:29:55;100467.31;;;4.92;62.38
29371;BME280;16357;52.188;7.838;2023-03-15T03:32:21;100477.00;;;4.93;62.34
29371;BME280;16357;52.188;7.838;2023-03-15T03:34:48;100490.13;;;4.94;61.91
29371;BME280;16357;52.188;7.838;2023-03-15T03:37:18;100483.72;;;4.97;61.83
29371;BME280;16357;52.188;7.838;2023-03-15T03:39:45;100494.25;;;4.98;62.28
29371;BME280;16357;52.188;7.838;2023-03-15T03:42:12;100488.09;;;4.98;62.40
29371;BME280;16357;52.188;7.838;2023-03-15T03:44:40;100494.97;;;5.00;62.58
29371;BME280;16357;52.188;7.838;2023-03-15T03:47:07;100493.97;;;5.01;62.05
29371;BME280;16357;52.188;7.838;2023-03-15T03:49:33;100493.88;;;5.03;62.26
29371;BME280;16357;52.188;7.838;2023-03-15T03:52:00;100500.03;;;5.03;62.17
29371;BME280;16357;52.188;7.838;2023-03-15T03:54:27;100504.38;;;5.04;61.99
29371;BME280;16357;52.188;7.838;2023-03-15T03:56:53;100507.84;;;5.05;62.09
29371;BME280;16357;52.188;7.838;2023-03-15T03:59:20;100513.06;;;5.06;62.13
29371;BME280;16357;52.188;7.838;2023-03-15T04:01:46;100513.06;;;5.06;62.18
29371;BME280;16357;52.188;7.838;2023-03-15T04:04:13;100523.69;;;5.06;62.07
29371;BME280;16357;52.188;7.838;2023-03-15T04:06:40;100528.19;;;5.06;62.16
29371;BME280;16357;52.188;7.838;2023-03-15T04:09:12;100534.19;;;5.08;61.99
29371;BME280;16357;52.188;7.838;2023-03-15T04:11:40;100537.00;;;5.06;62.25
29371;BME280;16357;52.188;7.838;2023-03-15T04:14:09;100544.13;;;5.06;62.15
29371;BME280;16357;52.188;7.838;2023-03-15T04:16:36;100551.13;;;5.07;62.17
29371;BME280;16357;52.188;7.838;2023-03-15T04:19:02;100558.25;;;5.06;61.86
29371;BME280;16357;52.188;7.838;2023-03-15T04:21:29;100550.28;;;5.06;62.02
29371;BME280;16357;52.188;7.838;2023-03-15T04:24:02;100551.13;;;5.07;61.98
29371;BME280;16357;52.188;7.838;2023-03-15T04:26:28;100550.28;;;5.06;62.10
29371;BME280;16357;52.188;7.838;2023-03-15T04:28:56;100552.78;;;5.08;62.34
29371;BME280;16357;52.188;7.838;2023-03-15T04:31:24;100563.44;;;5.08;61.92
29371;BME280;16357;52.188;7.838;2023-03-15T04:33:53;100566.81;;;5.10;62.24
29371;BME280;16357;52.188;7.838;2023-03-15T04:36:22;100561.50;;;5.10;62.21
29371;BME280;16357;52.188;7.838;2023-03-15T04:38:49;100563.22;;;5.11;61.88
29371;BME280;16357;52.188;7.838;2023-03-15T04:41:16;100571.03;;;5.13;62.12
29371;BME280;16357;52.188;7.838;2023-03-15T04:43:43;100578.19;;;5.12;62.27
29371;BME280;16357;52.188;7.838;2023-03-15T04:46:10;100576.25;;;5.14;62.24
29371;BME280;16357;52.188;7.838;2023-03-15T04:48:36;100578.91;;;5.14;61.92
29371;BME280;16357;52.188;7.838;2023-03-15T04:51:03;100578.91;;;5.14;62.30
29371;BME280;16357;52.188;7.838;2023-03-15T04:53:29;100580.59;;;5.15;62.25
29371;BME280;16357;52.188;7.838;2023-03-15T04:55:56;100589.41;;;5.16;62.33
29371;BME280;16357;52.188;7.838;2023-03-15T04:58:23;100588.44;;;5.17;62.32
29371;BME280;16357;52.188;7.838;2023-03-15T05:00:49;100598.00;;;5.19;62.15
29371;BME280;16357;52.188;7.838;2023-03-15T05:03:17;100598.00;;;5.19;62.23
29371;BME280;16357;52.188;7.838;2023-03-15T05:05:44;100591.69;;;5.20;62.32
29371;BME280;16357;52.188;7.838;2023-03-15T05:08:11;100595.06;;;5.22;62.05
29371;BME280;16357;52.188;7.838;2023-03-15T05:10:37;100598.56;;;5.23;62.27
29371;BME280;16357;52.188;7.838;2023-03-15T05:13:04;100593.13;;;5.24;62.22
29371;BME280;16357;52.188;7.838;2023-03-15T05:15:30;100593.97;;;5.25;62.22
29371;BME280;16357;52.188;7.838;2023-03-15T05:17:57;100613.31;;;5.27;61.76
29371;BME280;16357;52.188;7.838;2023-03-15T05:20:23;100616.81;;;5.27;61.64
29371;BME280;16357;52.188;7.838;2023-03-15T05:22:51;100618.66;;;5.27;61.60
29371;BME280;16357;52.188;7.838;2023-03-15T05:25:20;100608.13;;;5.25;61.90
29371;BME280;16357;52.188;7.838;2023-03-15T05:27:47;100623.22;;;5.25;61.97
29371;BME280;16357;52.188;7.838;2023-03-15T05:30:13;100635.69;;;5.24;62.34
29371;BME280;16357;52.188;7.838;2023-03-15T05:32:41;100631.22;;;5.25;61.73
29371;BME280;16357;52.188;7.838;2023-03-15T05:35:10;100635.69;;;5.24;61.67
29371;BME280;16357;52.188;7.838;2023-03-15T05:37:37;100640.03;;;5.25;61.99
29371;BME280;16357;52.188;7.838;2023-03-15T05:40:04;100651.66;;;5.24;61.64
29371;BME280;16357;52.188;7.838;2023-03-15T05:42:33;100650.66;;;5.25;62.00
29371;BME280;16357;52.188;7.838;2023-03-15T05:45:00;100653.47;;;5.24;61.98
29371;BME280;16357;52.188;7.838;2023-03-15T05:47:26;100663.25;;;5.23;61.66
29371;BME280;16357;52.188;7.838;2023-03-15T05:49:52;100661.56;;;5.22;61.53
29371;BME280;16357;52.188;7.838;2023-03-15T05:52:19;100672.19;;;5.22;62.04
29371;BME280;16357;52.188;7.838;2023-03-15T05:54:45;100685.59;;;5.21;61.92
29371;BME280;16357;52.188;7.838;2023-03-15T05:57:12;100692.63;;;5.22;62.12
29371;BME280;16357;52.188;7.838;2023-03-15T05:59:38;100695.41;;;5.20;61.88
29371;BME280;16357;52.188;7.838;2023-03-15T06:02:05;100707.88;;;5.20;61.94
29371;BME280;16357;52.188;7.838;2023-03-15T06:04:31;100705.19;;;5.20;61.87
29371;BME280;16357;52.188;7.838;2023-03-15T06:06:58;100715.00;;;5.19;61.93
29371;BME280;16357;52.188;7.838;2023-03-15T06:09:25;100715.00;;;5.19;61.91
29371;BME280;16357;52.188;7.838;2023-03-15T06:11:51;100720.31;;;5.19;62.04
29371;BME280;16357;52.188;7.838;2023-03-15T06:14:18;100732.63;;;5.20;62.11
29371;BME280;16357;52.188;7.838;2023-03-15T06:16:45;100724.66;;;5.20;62.31
29371;BME280;16357;52.188;7.838;2023-03-15T06:19:11;100727.31;;;5.20;62.38
29371;BME280;16357;52.188;7.838;2023-03-15T06:21:38;100733.47;;;5.21;61.91
29371;BME280;16357;52.188;7.838;2023-03-15T06:24:04;100739.66;;;5.21;61.98
29371;BME280;16357;52.188;7.838;2023-03-15T06:26:31;100737.00;;;5.21;62.30
29371;BME280;16357;52.188;7.838;2023-03-15T06:28:58;100739.66;;;5.21;62.32
29371;BME280;16357;52.188;7.838;2023-03-15T06:31:24;100738.69;;;5.22;62.12
29371;BME280;16357;52.188;7.838;2023-03-15T06:33:50;100742.31;;;5.21;62.12
29371;BME280;16357;52.188;7.838;2023-03-15T06:36:17;100749.31;;;5.22;61.95
29371;BME280;16357;52.188;7.838;2023-03-15T06:38:43;100747.50;;;5.23;62.21
29371;BME280;16357;52.188;7.838;2023-03-15T06:41:10;100753.66;;;5.23;62.21
29371;BME280;16357;52.188;7.838;2023-03-15T06:43:37;100765.16;;;5.24;62.15
29371;BME280;16357;52.188;7.838;2023-03-15T06:46:04;100771.31;;;5.24;62.19
29371;BME280;16357;52.188;7.838;2023-03-15T06:48:30;100770.50;;;5.24;61.76
29371;BME280;16357;52.188;7.838;2023-03-15T06:50:57;100774.00;;;5.24;62.19
29371;BME280;16357;52.188;7.838;2023-03-15T06:53:23;100773.00;;;5.25;61.90
29371;BME280;16357;52.188;7.838;2023-03-15T06:55:50;100782.81;;;5.25;62.18
29371;BME280;16357;52.188;7.838;2023-03-15T06:58:17;100785.31;;;5.26;62.21
29371;BME280;16357;52.188;7.838;2023-03-15T07:00:43;100796.69;;;5.28;62.35
29371;BME280;16357;52.188;7.838;2023-03-15T07:03:10;100791.38;;;5.28;62.01
29371;BME280;16357;52.188;7.838;2023-03-15T07:05:36;100796.59;;;5.30;61.99
29371;BME280;16357;52.188;7.838;2023-03-15T07:08:03;100802.75;;;5.31;61.84
29371;BME280;16357;52.188;7.838;2023-03-15T07:10:29;100802.66;;;5.32;62.27
29371;BME280;16357;52.188;7.838;2023-03-15T07:12:56;100800.81;;;5.33;62.24
29371;BME280;16357;52.188;7.838;2023-03-15T07:15:23;100808.56;;;5.36;62.36
29371;BME280;16357;52.188;7.838;2023-03-15T07:17:49;100808.31;;;5.39;62.13
29371;BME280;16357;52.188;7.838;2023-03-15T07:20:16;100823.06;;;5.43;62.41
29371;BME280;16357;52.188;7.838;2023-03-15T07:22:42;100828.88;;;5.48;62.27
29371;BME280;16357;52.188;7.838;2023-03-15T07:25:10;100834.69;;;5.53;62.36
29371;BME280;16357;52.188;7.838;2023-03-15T07:27:37;100834.19;;;5.59;62.29
29371;BME280;16357;52.188;7.838;2023-03-15T07:30:03;100833.84;;;5.64;62.03
29371;BME280;16357;52.188;7.838;2023-03-15T07:32:30;100844.09;;;5.68;61.93
29371;BME280;16357;52.188;7.838;2023-03-15T07:34:57;100847.22;;;5.73;61.85
29371;BME280;16357;52.188;7.838;2023-03-15T07:37:27;100845.88;;;5.79;61.91
29371;BME280;16357;52.188;7.838;2023-03-15T07:39:54;100861.38;;;5.85;61.67
29371;BME280;16357;52.188;7.838;2023-03-15T07:42:20;100852.91;;;5.91;61.92
29371;BME280;16357;52.188;7.838;2023-03-15T07:44:47;100858.72;;;5.97;61.30
29371;BME280;16357;52.188;7.838;2023-03-15T07:47:13;100866.34;;;6.01;nan
29371;BME280;16357;52.188;7.838;2023-03-15T07:49:40;100861.75;;;6.03;60.86
29371;BME280;16357;52.188;7.838;2023-03-15T07:52:07;100869.59;;;6.05;60.88
29371;BME280;16357;52.188;7.838;2023-03-15T07:54:33;100868.53;;;6.07;60.34
29371;BME280;16357;52.188;7.838;2023-03-15T07:57:00;100878.06;;;6.10;60.63
29371;BME280;16357;52.188;7.838;2023-03-15T07:59:26;100883.16;;;6.13;60.24
29371;BME280;16357;52.188;7.838;2023-03-15T08:01:53;100884.59;;;6.17;60.69
29371;BME280;16357;52.188;7.838;2023-03-15T08:04:19;100894.91;;;6.22;60.51
29371;BME280;16357;52.188;7.838;2023-03-15T08:06:46;100892.72;;;6.27;60.45
29371;BME280;16357;52.188;7.838;2023-03-15T08:09:13;100898.38;;;6.33;59.92
29371;BME280;16357;52.188;7.838;2023-03-15T08:11:39;100898.84;;;6.38;60.28
29371;BME280;16357;52.188;7.838;2023-03-15T08:14:07;100912.88;;;6.41;59.70
29371;BME280;16357;52.188;7.838;2023-03-15T08:16:34;100903.81;;;6.43;58.98
29371;BME280;16357;52.188;7.838;2023-03-15T08:19:00;100911.66;;;6.45;59.16
29371;BME280;16357;52.188;7.838;2023-03-15T08:21:27;100912.53;;;6.45;59.44
29371;BME280;16357;52.188;7.838;2023-03-15T08:23:53;100912.53;;;6.45;58.90
29371;BME280;16357;52.188;7.838;2023-03-15T08:26:19;100918.69;;;6.46;58.82
29371;BME280;16357;52.188;7.838;2023-03-15T08:28:46;100918.81;;;6.44;59.09
29371;BME280;16357;52.188;7.838;2023-03-15T08:31:12;100916.13;;;6.44;58.90
29371;BME280;16357;52.188;7.838;2023-03-15T08:33:39;100927.63;;;6.45;59.08
29371;BME280;16357;52.188;7.838;2023-03-15T08:36:06;100932.97;;;6.45;58.74
29371;BME280;16357;52.188;7.838;2023-03-15T08:38:33;100931.19;;;6.45;58.47
29371;BME280;16357;52.188;7.838;2023-03-15T08:40:59;100943.50;;;6.46;58.82
29371;BME280;16357;52.188;7.838;2023-03-15T08:43:26;100947.88;;;6.47;58.29
29371;BME280;16357;52.188;7.838;2023-03-15T08:45:52;100962.75;;;6.50;57.99
29371;BME280;16357;52.188;7.838;2023-03-15T08:48:27;100955.50;;;6.52;58.53
29371;BME280;16357;52.188;7.838;2023-03-15T08:50:53;100958.88;;;6.54;58.02
29371;BME280;16357;52.188;7.838;2023-03-15T08:53:19;100956.94;;;6.56;58.03
29371;BME280;16357;52.188;7.838;2023-03-15T08:55:47;100961.03;;;6.60;58.53
29371;BME280;16357;52.188;7.838;2023-03-15T08:58:14;100970.59;;;6.63;57.88
29371;BME280;16357;52.188;7.838;2023-03-15T09:00:40;100975.56;;;6.67;57.89
29371;BME280;16357;52.188;7.838;2023-03-15T09:03:06;100969.97;;;6.70;58.06
29371;BME280;16357;52.188;7.838;2023-03-15T09:05:33;100976.63;;;6.76;58.34
29371;BME280;16357;52.188;7.838;2023-03-15T09:08:01;100975.28;;;6.81;57.18
29371;BME280;16357;52.188;7.838;2023-03-15T09:10:28;100974.78;;;6.88;56.93
29371;BME280;16357;52.188;7.838;2023-03-15T09:12:54;100979.72;;;6.92;57.22
29371;BME280;16357;52.188;7.838;2023-03-15T09:15:21;100991.72;;;6.98;56.49
29371;BME280;16357;52.188;7.838;2023-03-15T09:17:50;100983.31;;;7.02;56.95
29371;BME280;16357;52.188;7.838;2023-03-15T09:20:18;100990.84;;;7.09;56.98
29371;BME280;16357;52.188;7.838;2023-03-15T09:22:57;100983.97;;;7.16;57.44
29371;BME280;16357;52.188;7.838;2023-03-15T09:25:24;100992.44;;;7.21;56.49
29371;BME280;16357;52.188;7.838;2023-03-15T09:27:51;100992.66;;;7.29;56.42
29371;BME280;16357;52.188;7.838;2023-03-15T09:30:18;100999.31;;;7.35;56.69
29371;BME280;16357;52.188;7.838;2023-03-15T09:32:45;100996.97;;;7.41;56.35
29371;BME280;16357;52.188;7.838;2023-03-15T09:35:17;100999.00;;;7.49;56.58
29371;BME280;16357;52.188;7.838;2023-03-15T09:37:44;100997.34;;;7.58;56.01
29371;BME280;16357;52.188;7.838;2023-03-15T09:40:15;101001.94;;;7.67;55.07
29371;BME280;16357;52.188;7.838;2023-03-15T09:45:39;100993.63;;;7.91;55.49
29371;BME280;16357;52.188;7.838;2023-03-15T09:48:15;100986.34;;;8.03;55.33
29371;BME280;16357;52.188;7.838;2023-03-15T09:50:47;100988.69;;;8.17;54.58
29371;BME280;16357;52.188;7.838;2023-03-15T09:53:29;100998.03;;;8.32;53.63
29371;BME280;16357;52.188;7.838;2023-03-15T09:55:57;100995.00;;;8.47;52.72
29371;BME280;16357;52.188;7.838;2023-03-15T09:58:25;100993.06;;;8.59;52.78
29371;BME280;16357;52.188;7.838;2023-03-15T10:01:01;100998.13;;;8.71;52.18
29371;BME280;16357;52.188;7.838;2023-03-15T10:06:21;100988.59;;;8.88;51.10
29371;BME280;16357;52.188;7.838;2023-03-15T10:08:55;100990.88;;;8.93;51.56
29371;BME280;16357;52.188;7.838;2023-03-15T10:11:35;100994.09;;;8.96;51.27
29371;BME280;16357;52.188;7.838;2023-03-15T10:17:17;100999.47;;;9.06;51.84
29371;BME280;16357;52.188;7.838;2023-03-15T10:19:48;100990.03;;;9.12;50.89
29371;BME280;16357;52.188;7.838;2023-03-15T10:22:23;100995.50;;;9.20;50.19
29371;BME280;16357;52.188;7.838;2023-03-15T10:27:39;100986.63;;;9.29;49.95
29371;BME280;16357;52.188;7.838;2023-03-15T10:30:24;101000.59;;;9.33;49.45
29371;BME280;16357;52.188;7.838;2023-03-15T10:32:56;100998.75;;;9.33;49.45
29371;BME280;16357;52.188;7.838;2023-03-15T10:35:24;101000.88;;;9.30;49.01
29371;BME280;16357;52.188;7.838;2023-03-15T10:37:51;100996.50;;;9.29;48.51
29371;BME280;16357;52.188;7.838;2023-03-15T10:40:37;100998.44;;;9.27;48.79
29371;BME280;16357;52.188;7.838;2023-03-15T10:43:11;100999.16;;;9.29;49.25
29371;BME280;16357;52.188;7.838;2023-03-15T10:45:37;101013.53;;;9.28;48.88
29371;BME280;16357;52.188;7.838;2023-03-15T10:48:04;101003.69;;;9.28;47.23
29371;BME280;16357;52.188;7.838;2023-03-15T10:50:33;101010.59;;;9.31;47.54
29371;BME280;16357;52.188;7.838;2023-03-15T10:53:01;101018.31;;;9.34;48.06
29371;BME280;16357;52.188;7.838;2023-03-15T10:55:42;101017.63;;;9.41;48.34
29371;BME280;16357;52.188;7.838;2023-03-15T10:58:37;101012.25;;;9.51;48.40
29371;BME280;16357;52.188;7.838;2023-03-15T11:01:07;101014.78;;;9.62;48.10
29371;BME280;16357;52.188;7.838;2023-03-15T11:03:36;101019.84;;;9.75;47.26
29371;BME280;16357;52.188;7.838;2023-03-15T11:06:18;101022.34;;;9.86;47.22
29371;BME280;16357;52.188;7.838;2023-03-15T11:08:44;101027.13;;;9.93;45.14
29371;BME280;16357;52.188;7.838;2023-03-15T11:11:11;101011.59;;;9.96;44.10
29371;BME280;16357;52.188;7.838;2023-03-15T11:13:39;101030.91;;;10.00;44.51
29371;BME280;16357;52.188;7.838;2023-03-15T11:18:58;101032.75;;;9.99;43.73
29371;BME280;16357;52.188;7.838;2023-03-15T11:21:31;101034.72;;;9.97;44.07
29371;BME280;16357;52.188;7.838;2023-03-15T11:24:00;101041.38;;;9.93;44.26
29371;BME280;16357;52.188;7.838;2023-03-15T11:26:32;101040.66;;;9.91;44.51
29371;BME280;16357;52.188;7.838;2023-03-15T11:29:04;101039.97;;;9.89;45.28
29371;BME280;16357;52.188;7.838;2023-03-15T11:31:32;101040.97;;;9.88;44.67
29371;BME280;16357;52.188;7.838;2023-03-15T11:34:03;101043.47;;;9.89;44.96
29371;BME280;16357;52.188;7.838;2023-03-15T11:36:32;101042.22;;;9.94;44.52
29371;BME280;16357;52.188;7.838;2023-03-15T11:39:02;101052.06;;;10.03;44.31
29371;BME280;16357;52.188;7.838;2023-03-15T11:41:43;101054.59;;;10.14;44.06
29371;BME280;16357;52.188;7.838;2023-03-15T11:47:02;101058.31;;;10.41;42.35
29371;BME280;16357;52.188;7.838;2023-03-15T11:49:36;101055.75;;;10.49;41.02
29371;BME280;16357;52.188;7.838;2023-03-15T11:52:03;101060.38;;;10.57;41.19
29371;BME280;16357;52.188;7.838;2023-03-15T11:54:30;101063.28;;;10.63;41.77
29371;BME280;16357;52.188;7.838;2023-03-15T11:57:05;101064.25;;;10.72;41.70
29371;BME280;16357;52.188;7.838;2023-03-15T11:59:36;101062.63;;;10.79;41.24
29371;BME280;16357;52.188;7.838;2023-03-15T12:04:49;101058.16;;;10.97;40.29
29371;BME280;16357;52.188;7.838;2023-03-15T12:22:49;101065.03;;;11.28;39.83
29371;BME280;16357;52.188;7.838;2023-03-15T12:25:28;101064.56;;;11.32;38.38
29371;BME280;16357;52.188;7.838;2023-03-15T12:27:57;101060.56;;;11.36;37.86
29371;BME280;16357;52.188;7.838;2023-03-15T12:30:31;101059.94;;;11.42;39.01
29371;BME280;16357;52.188;7.838;2023-03-15T12:33:00;101050.59;;;11.47;38.81
29371;BME280;16357;52.188;7.838;2023-03-15T12:35:32;101054.34;;;11.54;39.93
29371;BME280;16357;52.188;7.838;2023-03-15T12:38:10;101066.00;;;11.62;39.16
29371;BME280;16357;52.188;7.838;2023-03-15T12:40:53;101061.69;;;11.70;38.13
29371;BME280;16357;52.188;7.838;2023-03-15T12:43:42;101052.84;;;11.77;38.86
29371;BME280;16357;52.188;7.838;2023-03-15T12:49:13;101053.16;;;11.92;38.37
29371;BME280;16357;52.188;7.838;2023-03-15T12:54:21;101050.03;;;12.05;36.89
29371;BME280;16357;52.188;7.838;2023-03-15T12:56:55;101049.56;;;12.10;37.26
29371;BME280;16357;52.188;7.838;2023-03-15T13:05:27;101044.75;;;12.21;35.96
29371;BME280;16357;52.188;7.838;2023-03-15T13:08:16;101055.84;;;12.18;35.20
29371;BME280;16357;52.188;7.838;2023-03-15T13:11:27;101046.56;;;12.13;36.30
29371;BME280;16357;52.188;7.838;2023-03-15T13:17:34;101048.03;;;12.07;37.99
29371;BME280;16357;52.188;7.838;2023-03-15T13:23:29;101041.22;;;12.21;36.85
29371;BME280;16357;52.188;7.838;2023-03-15T13:28:47;101051.22;;;12.37;36.79
29371;BME280;16357;52.188;7.838;2023-03-15T13:31:22;101042.53;;;12.43;36.47
29371;BME280;16357;52.188;7.838;2023-03-15T13:33:51;101048.09;;;12.49;36.50
29371;BME280;16357;52.188;7.838;2023-03-15T13:36:42;101050.66;;;12.59;36.97
29371;BME280;16357;52.188;7.838;2023-03-15T13:39:22;101041.47;;;12.70;38.68
29371;BME280;16357;52.188;7.838;2023-03-15T13:41:56;101050.06;;;12.82;37.08
29371;BME280;16357;52.188;7.838;2023-03-15T13:44:24;101056.63;;;12.87;35.41
29371;BME280;16357;52.188;7.838;2023-03-15T13:46:52;101045.56;;;12.90;33.90
29371;BME280;16357;52.188;7.838;2023-03-15T13:49:19;101059.53;;;12.94;34.15
29371;BME280;16357;52.188;7.838;2023-03-15T13:51:47;101056.50;;;12.97;34.25
29371;BME280;16357;52.188;7.838;2023-03-15T13:57:13;101058.88;;;13.00;34.20
29371;BME280;16357;52.188;7.838;2023-03-15T13:59:46;101061.56;;;13.00;34.03
29371;BME280;16357;52.188;7.838;2023-03-15T14:02:18;101055.66;;;12.96;33.89
29371;BME280;16357;52.188;7.838;2023-03-15T14:04:55;101060.56;;;12.93;34.43
29371;BME280;16357;52.188;7.838;2023-03-15T14:07:44;101059.19;;;12.89;34.28
29371;BME280;16357;52.188;7.838;2023-03-15T14:10:22;101070.63;;;12.83;33.69
29371;BME280;16357;52.188;7.838;2023-03-15T14:12:51;101076.28;;;12.71;33.96